Time;durP1;ratioP1;P1;durP2;ratioP2;P2;SDS_P1;SDS_P2;PMS_P1;PMS_P2;Temp;Humidity;BMP_temperature;BMP_pressure;BME280_temperature;BME280_humidity;BME280_pressure;Samples;Min_cycle;Max_cycle;Signal;HPM_P1;HPM_P2
2023/08/19 00:01:33;;;;;;;24.13;21.65;;;22.80;99.90;;;;;;5064972;28;20066;-52
2023/08/19 00:04:00;;;;;;;26.20;23.52;;;22.80;99.90;;;;;;5066033;28;20041;-50
2023/08/19 00:06:39;;;;;;;24.38;21.77;;;22.80;99.90;;;;;;5067241;28;20119;-52
2023/08/19 00:09:08;;;;;;;23.15;20.85;;;22.70;99.90;;;;;;5067000;28;20047;-51
2023/08/19 00:11:35;;;;;;;24.50;22.10;;;22.70;99.90;;;;;;5064880;28;20044;-54
2023/08/19 00:14:03;;;;;;;24.38;21.92;;;22.70;99.90;;;;;;5067920;28;20059;-51
2023/08/19 00:16:29;;;;;;;24.58;22.13;;;22.70;99.90;;;;;;5064753;28;20052;-53
2023/08/19 00:18:55;;;;;;;24.40;21.90;;;22.60;99.90;;;;;;5067275;28;20052;-50
2023/08/19 00:21:21;;;;;;;24.75;22.17;;;22.70;99.90;;;;;;5065901;28;20391;-53
2023/08/19 00:23:47;;;;;;;24.42;21.98;;;22.70;99.90;;;;;;5066348;28;20032;-54
2023/08/19 00:26:12;;;;;;;24.17;21.85;;;22.70;99.90;;;;;;5067168;28;20524;-50
2023/08/19 00:28:39;;;;;;;23.17;20.67;;;22.50;99.90;;;;;;5065925;28;20119;-52
2023/08/19 00:31:06;;;;;;;24.83;21.90;;;22.60;99.90;;;;;;5064710;28;20039;-53
2023/08/19 00:33:32;;;;;;;25.48;22.90;;;22.50;99.90;;;;;;5067443;28;20066;-51
2023/08/19 00:35:57;;;;;;;25.83;23.02;;;22.50;99.90;;;;;;5065997;28;20071;-53
2023/08/19 00:38:23;;;;;;;24.50;21.98;;;22.50;99.90;;;;;;5065874;28;20037;-53
2023/08/19 00:40:49;;;;;;;23.48;21.08;;;22.60;99.90;;;;;;5068271;28;20058;-53
2023/08/19 00:43:14;;;;;;;24.13;21.83;;;22.50;99.90;;;;;;5067549;28;20090;-53
2023/08/19 00:45:44;;;;;;;26.10;23.38;;;22.50;99.90;;;;;;5066141;28;20036;-52
2023/08/19 00:48:15;;;;;;;25.25;22.80;;;22.50;99.90;;;;;;5064319;28;20187;-55
2023/08/19 00:50:41;;;;;;;24.67;22.17;;;22.40;99.90;;;;;;5067639;28;20525;-52
2023/08/19 00:53:09;;;;;;;25.13;22.70;;;22.50;99.90;;;;;;5066162;28;20040;-51
2023/08/19 00:55:36;;;;;;;25.70;23.20;;;22.30;99.90;;;;;;5066925;28;20036;-53
2023/08/19 00:58:03;;;;;;;24.88;22.38;;;22.40;99.90;;;;;;5064842;28;20036;-52
2023/08/19 01:00:32;;;;;;;24.75;22.15;;;22.40;99.90;;;;;;5064071;28;20076;-53
2023/08/19 01:02:59;;;;;;;23.73;21.35;;;22.40;99.90;;;;;;5065352;28;20055;-52
2023/08/19 01:05:35;;;;;;;24.17;21.88;;;22.40;99.90;;;;;;5064988;28;20131;-51
2023/08/19 01:08:04;;;;;;;26.13;23.52;;;22.40;99.90;;;;;;5065518;28;20116;-54
2023/08/19 01:10:39;;;;;;;26.67;23.98;;;22.30;99.90;;;;;;5064757;28;20102;-51
2023/08/19 01:13:15;;;;;;;26.45;23.75;;;22.30;99.90;;;;;;5064648;28;20044;-51
2023/08/19 01:15:55;;;;;;;26.75;23.17;;;22.20;99.90;;;;;;5066981;28;20123;-53
2023/08/19 01:18:23;;;;;;;26.02;23.42;;;22.20;99.90;;;;;;5067281;28;20392;-51
2023/08/19 01:20:50;;;;;;;26.67;24.08;;;22.30;99.90;;;;;;5066772;28;20045;-51
2023/08/19 01:23:25;;;;;;;26.33;23.73;;;22.20;99.90;;;;;;5065241;28;20048;-52
2023/08/19 01:25:51;;;;;;;25.58;23.17;;;22.20;99.90;;;;;;5065773;28;20510;-53
2023/08/19 01:28:20;;;;;;;26.00;23.40;;;22.10;99.90;;;;;;5065121;28;20044;-53
2023/08/19 01:30:46;;;;;;;26.90;24.17;;;22.20;99.90;;;;;;5064474;28;20079;-53
2023/08/19 01:33:12;;;;;;;26.90;24.17;;;22.10;99.90;;;;;;5065104;28;20068;-52
2023/08/19 01:35:43;;;;;;;26.25;23.45;;;22.20;99.90;;;;;;5066816;28;20071;-54
2023/08/19 01:38:15;;;;;;;27.02;24.42;;;22.10;99.90;;;;;;5063649;28;20047;-52
2023/08/19 01:40:42;;;;;;;28.15;24.55;;;22.20;99.90;;;;;;5065648;28;20047;-53
2023/08/19 01:43:11;;;;;;;25.80;23.15;;;22.20;99.90;;;;;;5066678;28;20048;-52
2023/08/19 01:45:38;;;;;;;26.90;24.20;;;22.20;99.90;;;;;;5068111;28;20447;-53
2023/08/19 01:48:04;;;;;;;27.20;24.10;;;22.10;99.90;;;;;;5066056;28;20057;-49
2023/08/19 01:50:30;;;;;;;26.15;23.38;;;22.10;99.90;;;;;;5071411;28;20047;-50
2023/08/19 01:52:56;;;;;;;24.77;22.08;;;22.00;99.90;;;;;;5071083;28;20040;-51
2023/08/19 01:55:22;;;;;;;25.33;22.80;;;22.10;99.90;;;;;;5068763;28;20107;-51
2023/08/19 01:57:48;;;;;;;27.00;24.20;;;22.00;99.90;;;;;;5068466;28;20044;-51
2023/08/19 02:00:14;;;;;;;26.35;23.70;;;22.00;99.90;;;;;;5068151;28;20365;-50
2023/08/19 02:02:39;;;;;;;26.92;24.02;;;22.10;99.90;;;;;;5068395;28;20047;-53
2023/08/19 02:05:05;;;;;;;26.85;24.25;;;22.10;99.90;;;;;;5068437;28;20076;-50
2023/08/19 02:07:31;;;;;;;28.55;24.00;;;22.00;99.90;;;;;;5068826;28;20040;-52
2023/08/19 02:09:57;;;;;;;24.38;22.00;;;22.10;99.90;;;;;;5070402;28;20040;-50
2023/08/19 02:12:23;;;;;;;27.63;24.73;;;22.00;99.90;;;;;;5070269;28;20037;-53
2023/08/19 02:14:48;;;;;;;26.85;24.10;;;22.10;99.90;;;;;;5069626;28;20040;-50
2023/08/19 02:17:14;;;;;;;26.13;23.48;;;22.00;99.90;;;;;;5070748;28;20047;-50
2023/08/19 02:19:40;;;;;;;26.67;23.83;;;22.00;99.90;;;;;;5069327;28;20040;-49
2023/08/19 02:22:06;;;;;;;24.52;22.20;;;22.00;99.90;;;;;;5067008;28;20521;-52
2023/08/19 02:24:31;;;;;;;26.92;23.52;;;22.00;99.90;;;;;;5070926;28;20369;-52
2023/08/19 02:26:57;;;;;;;26.30;23.60;;;21.90;99.90;;;;;;5066072;28;20040;-52
2023/08/19 02:29:23;;;;;;;25.35;22.75;;;22.10;99.90;;;;;;5068612;28;20422;-51
2023/08/19 02:31:48;;;;;;;26.08;23.27;;;21.90;99.90;;;;;;5068325;28;20044;-52
2023/08/19 02:34:14;;;;;;;25.10;22.45;;;22.00;99.90;;;;;;5068409;28;20086;-51
2023/08/19 02:36:40;;;;;;;29.70;24.25;;;22.00;99.90;;;;;;5068359;28;20389;-51
2023/08/19 02:39:05;;;;;;;25.90;23.20;;;22.00;99.90;;;;;;5068374;28;20039;-51
2023/08/19 02:41:31;;;;;;;25.42;22.65;;;21.90;99.90;;;;;;5070603;28;20044;-52
2023/08/19 02:43:57;;;;;;;25.40;22.60;;;21.90;99.90;;;;;;5068805;28;20376;-53
2023/08/19 02:46:22;;;;;;;25.33;22.85;;;21.90;99.90;;;;;;5067119;28;20037;-53
2023/08/19 02:48:48;;;;;;;26.90;24.02;;;21.90;99.90;;;;;;5068702;28;20114;-50
2023/08/19 02:51:14;;;;;;;25.70;23.10;;;21.80;99.90;;;;;;5053234;28;20044;-53
2023/08/19 02:53:40;;;;;;;25.13;22.60;;;21.80;99.90;;;;;;5065969;28;20044;-52
2023/08/19 02:56:06;;;;;;;26.25;23.50;;;21.80;99.90;;;;;;5068751;28;20498;-53
2023/08/19 02:58:32;;;;;;;24.55;21.95;;;21.90;99.90;;;;;;5066357;28;20032;-53
2023/08/19 03:00:58;;;;;;;23.67;21.33;;;21.80;99.90;;;;;;5066056;28;20043;-53
2023/08/19 03:03:24;;;;;;;24.35;21.83;;;21.90;99.90;;;;;;5068416;28;23078;-53
2023/08/19 03:05:49;;;;;;;25.30;22.70;;;21.80;99.90;;;;;;5069377;28;20031;-52
2023/08/19 03:08:15;;;;;;;24.67;22.13;;;21.80;99.90;;;;;;5068466;28;20044;-52
2023/08/19 03:10:41;;;;;;;24.52;21.92;;;21.80;99.90;;;;;;5066748;28;20056;-52
2023/08/19 03:13:09;;;;;;;24.13;21.73;;;21.80;99.90;;;;;;5068188;28;20127;-52
2023/08/19 03:15:37;;;;;;;24.48;21.40;;;21.80;99.90;;;;;;5067574;28;20066;-52
2023/08/19 03:18:03;;;;;;;24.55;22.15;;;21.80;99.90;;;;;;5067240;28;20072;-51
2023/08/19 03:20:29;;;;;;;23.60;21.05;;;21.80;99.90;;;;;;5066566;28;20062;-48
2023/08/19 03:22:55;;;;;;;23.20;20.70;;;21.80;99.90;;;;;;5066589;28;20495;-51
2023/08/19 03:25:21;;;;;;;23.40;21.00;;;21.80;99.90;;;;;;5085686;28;20379;-51
2023/08/19 03:27:46;;;;;;;23.30;20.88;;;21.80;99.90;;;;;;5067393;28;20123;-54
2023/08/19 03:30:12;;;;;;;23.38;20.88;;;21.70;99.90;;;;;;5068358;28;20112;-53
2023/08/19 03:32:38;;;;;;;24.00;21.33;;;21.80;99.90;;;;;;5066902;28;20494;-50
2023/08/19 03:35:04;;;;;;;23.92;21.20;;;21.70;99.90;;;;;;5069800;28;20040;-52
2023/08/19 03:37:29;;;;;;;23.85;21.55;;;21.70;99.90;;;;;;5068000;28;20037;-53
2023/08/19 03:39:55;;;;;;;21.92;19.60;;;21.80;99.90;;;;;;5067419;28;20055;-48
2023/08/19 03:42:21;;;;;;;22.60;20.23;;;21.80;99.90;;;;;;5067240;28;20365;-53
2023/08/19 03:44:46;;;;;;;22.67;20.38;;;21.70;99.90;;;;;;5065627;28;20459;-51
2023/08/19 03:47:13;;;;;;;23.33;20.55;;;21.70;99.90;;;;;;5066544;28;20056;-51
2023/08/19 03:49:39;;;;;;;22.52;20.33;;;21.80;99.90;;;;;;5067885;28;20182;-51
2023/08/19 03:52:06;;;;;;;23.50;21.08;;;21.90;99.90;;;;;;5065583;28;20079;-53
2023/08/19 03:54:32;;;;;;;23.48;20.98;;;21.70;99.90;;;;;;5051595;28;20037;-52
2023/08/19 03:56:58;;;;;;;22.67;20.38;;;21.80;99.90;;;;;;5066260;28;20044;-53
2023/08/19 03:59:23;;;;;;;22.58;20.08;;;21.70;99.90;;;;;;5067709;28;20102;-52
2023/08/19 04:01:49;;;;;;;22.80;20.40;;;21.80;99.90;;;;;;5067475;28;20036;-52
2023/08/19 04:04:15;;;;;;;22.90;20.35;;;21.90;99.90;;;;;;5066816;28;20048;-51
2023/08/19 04:06:41;;;;;;;22.55;20.15;;;21.90;99.90;;;;;;5066715;28;20083;-50
2023/08/19 04:09:07;;;;;;;22.60;20.40;;;21.80;99.90;;;;;;5067564;28;20035;-52
2023/08/19 04:11:33;;;;;;;21.75;19.58;;;21.90;99.90;;;;;;5066713;28;20037;-53
2023/08/19 04:13:59;;;;;;;24.25;19.77;;;21.80;99.90;;;;;;5064826;28;20388;-54
2023/08/19 04:16:24;;;;;;;21.55;19.30;;;21.80;99.90;;;;;;5065585;28;20043;-49
2023/08/19 04:18:51;;;;;;;21.70;19.60;;;21.80;99.90;;;;;;5067527;28;20048;-50
2023/08/19 04:21:17;;;;;;;22.02;19.77;;;21.90;99.90;;;;;;5066128;28;20051;-52
2023/08/19 04:23:43;;;;;;;22.55;20.17;;;21.80;99.90;;;;;;5066562;28;20048;-50
2023/08/19 04:26:09;;;;;;;22.65;20.25;;;21.90;99.90;;;;;;5065830;28;20037;-51
2023/08/19 04:28:35;;;;;;;21.88;19.58;;;21.80;99.90;;;;;;5065688;28;20388;-50
2023/08/19 04:31:06;;;;;;;23.08;19.33;;;21.90;99.90;;;;;;5063785;28;20094;-51
2023/08/19 04:33:33;;;;;;;22.33;18.85;;;21.80;99.90;;;;;;5067289;28;20028;-50
2023/08/19 04:35:59;;;;;;;20.48;18.13;;;21.80;99.90;;;;;;5067807;28;20062;-52
2023/08/19 04:38:25;;;;;;;20.92;18.80;;;21.90;99.90;;;;;;5064150;28;20799;-50
2023/08/19 04:40:51;;;;;;;21.05;18.52;;;21.90;99.90;;;;;;5065599;28;20041;-50
2023/08/19 04:43:19;;;;;;;20.77;18.67;;;21.80;99.90;;;;;;5064601;28;20128;-52
2023/08/19 04:45:45;;;;;;;23.55;19.60;;;21.80;99.90;;;;;;5067000;28;20414;-52
2023/08/19 04:48:10;;;;;;;21.48;19.17;;;21.80;99.90;;;;;;5064841;28;20045;-52
2023/08/19 04:50:36;;;;;;;21.23;18.95;;;21.80;99.90;;;;;;5066681;28;20055;-51
2023/08/19 04:53:03;;;;;;;21.42;18.92;;;21.80;99.90;;;;;;5067858;28;20032;-53
2023/08/19 04:55:29;;;;;;;22.02;18.70;;;21.90;99.90;;;;;;5067676;28;20056;-51
2023/08/19 04:57:55;;;;;;;20.35;18.25;;;21.90;99.90;;;;;;5064954;28;20090;-53
2023/08/19 05:00:21;;;;;;;21.85;18.02;;;21.90;99.90;;;;;;5066816;28;20438;-52
2023/08/19 05:02:48;;;;;;;21.20;18.90;;;21.80;99.90;;;;;;5068235;28;20032;-52
2023/08/19 05:05:14;;;;;;;20.00;17.80;;;22.00;99.90;;;;;;5064178;28;20039;-50
2023/08/19 05:07:40;;;;;;;19.40;17.40;;;21.90;99.90;;;;;;5065932;28;20430;-52
2023/08/19 05:10:06;;;;;;;21.17;18.80;;;21.90;99.90;;;;;;5065455;28;20120;-51
2023/08/19 05:12:32;;;;;;;20.00;17.88;;;21.90;99.90;;;;;;5067078;28;20036;-52
2023/08/19 05:14:58;;;;;;;20.00;17.88;;;22.00;99.90;;;;;;5063898;28;20479;-51
2023/08/19 05:17:23;;;;;;;23.35;19.05;;;21.90;99.90;;;;;;5066440;28;20041;-53
2023/08/19 05:19:49;;;;;;;20.10;17.40;;;22.00;99.90;;;;;;5070984;28;20497;-53
2023/08/19 05:22:15;;;;;;;20.98;17.90;;;22.00;99.90;;;;;;5071055;28;20479;-53
2023/08/19 05:24:41;;;;;;;19.95;17.85;;;22.00;99.90;;;;;;5084348;28;20048;-53
2023/08/19 05:27:07;;;;;;;18.67;16.73;;;21.90;99.90;;;;;;5070188;28;20853;-52
2023/08/19 05:29:33;;;;;;;21.85;17.20;;;22.00;99.90;;;;;;5069582;28;20040;-53
2023/08/19 05:31:58;;;;;;;21.25;17.15;;;21.90;99.90;;;;;;5068429;28;20377;-50
2023/08/19 05:34:25;;;;;;;20.90;16.27;;;22.00;99.90;;;;;;5068289;28;20032;-53
2023/08/19 05:36:51;;;;;;;19.10;16.50;;;22.00;99.90;;;;;;5068049;28;20052;-52
2023/08/19 05:39:17;;;;;;;19.35;16.25;;;22.10;99.90;;;;;;5069979;28;20039;-52
2023/08/19 05:41:43;;;;;;;20.40;16.35;;;21.90;99.90;;;;;;5069063;28;20040;-52
2023/08/19 05:44:09;;;;;;;17.70;15.43;;;22.10;99.90;;;;;;5069003;28;20411;-52
2023/08/19 05:46:34;;;;;;;20.02;16.10;;;22.00;99.90;;;;;;5070200;28;20051;-53
2023/08/19 05:49:00;;;;;;;18.35;16.00;;;22.10;99.90;;;;;;5070446;28;20117;-52
2023/08/19 05:51:27;;;;;;;18.33;16.20;;;21.90;99.90;;;;;;5070278;28;20111;-52
2023/08/19 05:54:00;;;;;;;18.05;16.02;;;22.10;99.90;;;;;;5070086;28;20420;-53
2023/08/19 05:56:26;;;;;;;17.17;15.05;;;22.00;99.90;;;;;;5087966;28;20053;-52
2023/08/19 05:58:52;;;;;;;17.45;15.55;;;22.00;99.90;;;;;;5068825;28;20033;-53
2023/08/19 06:01:17;;;;;;;17.27;15.45;;;22.10;99.90;;;;;;5069846;28;20445;-51
2023/08/19 06:03:43;;;;;;;19.58;15.95;;;22.10;99.90;;;;;;5071266;28;20130;-52
2023/08/19 06:06:10;;;;;;;18.77;15.80;;;22.10;99.90;;;;;;5068668;28;20371;-49
2023/08/19 06:08:36;;;;;;;16.00;14.30;;;22.10;99.90;;;;;;5067940;28;20041;-53
2023/08/19 06:11:05;;;;;;;18.08;14.20;;;22.00;99.90;;;;;;5071143;28;20044;-51
2023/08/19 06:13:31;;;;;;;17.25;15.27;;;22.10;99.90;;;;;;5069203;28;20425;-52
2023/08/19 06:15:57;;;;;;;17.92;15.57;;;22.10;99.90;;;;;;5067571;28;20380;-52
2023/08/19 06:18:24;;;;;;;18.00;14.98;;;22.20;99.90;;;;;;5069300;28;20564;-49
2023/08/19 06:20:50;;;;;;;17.10;15.40;;;22.10;99.90;;;;;;5069631;28;20044;-52
2023/08/19 06:23:19;;;;;;;16.55;14.50;;;22.20;99.90;;;;;;5067885;28;20466;-52
2023/08/19 06:25:47;;;;;;;15.85;14.02;;;22.10;99.90;;;;;;5067210;28;20036;-48
2023/08/19 06:28:13;;;;;;;17.75;13.95;;;22.30;99.90;;;;;;5067644;28;20167;-52
2023/08/19 06:30:39;;;;;;;16.85;14.00;;;22.30;99.90;;;;;;5065887;28;20116;-53
2023/08/19 06:33:05;;;;;;;16.42;14.40;;;22.30;99.90;;;;;;5069177;28;20040;-51
2023/08/19 06:35:31;;;;;;;16.17;13.55;;;22.30;99.90;;;;;;5066723;28;20044;-52
2023/08/19 06:38:03;;;;;;;18.70;14.73;;;22.40;99.90;;;;;;5068921;28;20382;-51
2023/08/19 06:40:33;;;;;;;16.08;14.05;;;22.40;99.90;;;;;;5069397;28;20071;-52
2023/08/19 06:43:00;;;;;;;17.63;13.75;;;22.50;99.90;;;;;;5067797;28;20043;-53
2023/08/19 06:45:26;;;;;;;16.42;13.27;;;22.50;99.90;;;;;;5069925;28;20036;-50
2023/08/19 06:47:53;;;;;;;21.25;14.35;;;22.50;99.90;;;;;;5067897;28;20044;-53
2023/08/19 06:50:19;;;;;;;15.07;13.18;;;22.50;99.90;;;;;;5066255;28;20044;-50
2023/08/19 06:52:45;;;;;;;15.05;12.88;;;22.50;99.90;;;;;;5068329;28;20036;-50
2023/08/19 06:55:12;;;;;;;14.80;13.20;;;22.60;99.90;;;;;;5067698;28;20086;-52
2023/08/19 06:57:47;;;;;;;15.98;13.35;;;22.60;99.90;;;;;;5068620;28;20056;-52
2023/08/19 07:00:14;;;;;;;15.20;12.73;;;22.60;99.90;;;;;;5068092;28;20072;-51
2023/08/19 07:02:41;;;;;;;13.70;12.27;;;22.60;99.90;;;;;;5069700;28;20051;-50
2023/08/19 07:05:14;;;;;;;19.42;12.73;;;22.70;99.90;;;;;;5069173;28;20498;-52
2023/08/19 07:07:46;;;;;;;15.18;12.98;;;22.60;99.90;;;;;;5067909;28;20098;-53
2023/08/19 07:10:17;;;;;;;14.60;12.00;;;22.70;99.90;;;;;;5067289;28;20033;-52
2023/08/19 07:12:43;;;;;;;17.00;13.05;;;22.70;99.90;;;;;;5065674;28;20368;-52
2023/08/19 07:15:14;;;;;;;15.15;12.75;;;22.90;99.90;;;;;;5070519;28;20476;-52
2023/08/19 07:17:47;;;;;;;14.98;12.82;;;22.90;99.90;;;;;;5067442;28;20036;-53
2023/08/19 07:20:20;;;;;;;15.95;12.52;;;23.00;99.90;;;;;;5068198;28;20071;-52
2023/08/19 07:22:48;;;;;;;15.20;11.98;;;23.00;99.90;;;;;;5069678;28;20068;-52
2023/08/19 07:25:15;;;;;;;16.17;12.40;;;23.10;99.90;;;;;;5067505;28;20511;-52
2023/08/19 07:27:43;;;;;;;14.05;12.43;;;23.10;99.90;;;;;;5068731;28;20063;-50
2023/08/19 07:30:09;;;;;;;15.05;12.52;;;23.10;99.90;;;;;;5066245;28;20037;-52
2023/08/19 07:32:36;;;;;;;14.57;12.07;;;23.10;99.90;;;;;;5067623;28;20458;-53
2023/08/19 07:35:03;;;;;;;13.98;11.98;;;23.30;99.90;;;;;;5067006;28;20114;-51
2023/08/19 07:37:29;;;;;;;14.93;12.32;;;23.30;99.90;;;;;;5067008;28;20040;-49
2023/08/19 07:39:56;;;;;;;15.40;12.63;;;23.30;99.90;;;;;;5068403;28;20048;-51
2023/08/19 07:42:22;;;;;;;18.05;12.20;;;23.40;99.90;;;;;;5066138;28;20048;-54
2023/08/19 07:44:48;;;;;;;15.77;11.23;;;23.40;99.90;;;;;;5066949;28;20045;-52
2023/08/19 07:47:13;;;;;;;15.45;11.43;;;23.40;99.90;;;;;;5068779;28;20515;-52
2023/08/19 07:49:39;;;;;;;12.75;11.10;;;23.50;99.90;;;;;;5068441;28;20123;-53
2023/08/19 07:52:05;;;;;;;14.07;11.63;;;23.60;99.90;;;;;;5068138;28;20051;-53
2023/08/19 07:54:31;;;;;;;13.90;10.48;;;23.60;99.90;;;;;;5066825;28;20048;-49
2023/08/19 07:56:58;;;;;;;12.00;10.10;;;23.70;99.90;;;;;;5068073;28;20043;-53
2023/08/19 07:59:27;;;;;;;12.73;9.77;;;23.80;99.90;;;;;;5067563;28;20063;-53
2023/08/19 08:01:54;;;;;;;15.20;10.20;;;23.90;99.90;;;;;;5065970;28;20067;-52
2023/08/19 08:04:21;;;;;;;12.23;9.93;;;23.90;99.90;;;;;;5066127;28;20040;-50
2023/08/19 08:06:49;;;;;;;12.80;9.63;;;24.00;99.90;;;;;;5067276;28;20040;-51
2023/08/19 08:09:15;;;;;;;16.73;10.00;;;24.10;99.90;;;;;;5067047;28;20042;-50
2023/08/19 08:11:45;;;;;;;13.27;9.13;;;24.20;99.90;;;;;;5068370;28;20503;-53
2023/08/19 08:14:11;;;;;;;11.95;9.23;;;24.30;99.90;;;;;;5064927;28;20068;-51
2023/08/19 08:16:37;;;;;;;13.43;9.32;;;24.40;99.90;;;;;;5068947;28;20498;-52
2023/08/19 08:19:02;;;;;;;13.52;9.38;;;24.40;99.90;;;;;;5066865;28;20138;-52
2023/08/19 08:21:28;;;;;;;14.07;9.13;;;24.40;99.90;;;;;;5067175;28;20039;-54
2023/08/19 08:23:54;;;;;;;11.25;8.98;;;24.50;99.90;;;;;;5062904;28;20047;-52
2023/08/19 08:26:20;;;;;;;14.18;8.98;;;24.60;99.90;;;;;;5067628;28;20462;-53
2023/08/19 08:28:46;;;;;;;11.25;8.75;;;24.60;99.90;;;;;;5063976;28;20033;-53
2023/08/19 08:31:12;;;;;;;11.73;8.60;;;24.70;99.90;;;;;;5066279;28;20502;-53
2023/08/19 08:33:38;;;;;;;11.73;8.73;;;24.70;99.90;;;;;;5067072;28;20071;-53
2023/08/19 08:36:04;;;;;;;11.68;7.90;;;24.70;99.90;;;;;;5066314;28;20032;-51
2023/08/19 08:38:29;;;;;;;12.48;8.00;;;24.70;99.90;;;;;;5050517;28;20036;-51
2023/08/19 08:40:59;;;;;;;10.85;8.00;;;24.70;99.90;;;;;;5066633;28;20078;-53
2023/08/19 08:43:25;;;;;;;12.40;8.55;;;24.80;99.90;;;;;;5067402;28;20048;-53
2023/08/19 08:45:51;;;;;;;10.85;8.23;;;24.90;99.90;;;;;;5066962;28;20035;-50
2023/08/19 08:48:18;;;;;;;12.27;8.15;;;24.80;99.90;;;;;;5066032;28;20052;-51
2023/08/19 08:50:45;;;;;;;12.30;8.50;;;24.90;99.90;;;;;;5066481;28;20111;-53
2023/08/19 08:53:13;;;;;;;13.43;8.93;;;25.00;99.90;;;;;;5065610;28;20045;-51
2023/08/19 08:55:39;;;;;;;12.32;8.65;;;24.90;99.90;;;;;;5068099;28;20041;-53
2023/08/19 08:58:04;;;;;;;11.88;8.52;;;25.10;99.90;;;;;;5066666;28;20044;-49
2023/08/19 09:00:31;;;;;;;14.63;8.98;;;25.10;99.90;;;;;;5065032;28;20484;-52
2023/08/19 09:02:58;;;;;;;11.10;8.65;;;25.20;99.90;;;;;;5065041;28;20048;-53
2023/08/19 09:05:26;;;;;;;10.88;8.60;;;25.30;99.90;;;;;;5064498;28;20037;-51
2023/08/19 09:07:54;;;;;;;11.98;8.38;;;25.30;99.90;;;;;;5067545;28;20396;-52
2023/08/19 09:10:24;;;;;;;11.55;7.82;;;25.50;99.90;;;;;;5068161;28;20037;-53
2023/08/19 09:12:57;;;;;;;12.55;8.55;;;25.60;99.90;;;;;;5064992;28;20039;-51
2023/08/19 09:15:26;;;;;;;10.65;7.85;;;25.60;99.90;;;;;;5065625;28;20051;-54
2023/08/19 09:17:52;;;;;;;11.80;7.88;;;25.60;99.90;;;;;;5064612;28;20127;-51
2023/08/19 09:20:17;;;;;;;10.13;7.90;;;25.60;99.90;;;;;;5066966;28;20062;-52
2023/08/19 09:22:44;;;;;;;10.38;8.13;;;25.60;99.90;;;;;;5062766;28;20047;-52
2023/08/19 09:25:18;;;;;;;16.20;7.93;;;25.60;99.90;;;;;;5065575;28;20051;-53
2023/08/19 09:27:46;;;;;;;10.95;8.25;;;25.50;99.90;;;;;;5064998;28;20036;-52
2023/08/19 09:30:16;;;;;;;11.73;8.65;;;25.40;99.90;;;;;;5064835;28;20414;-53
2023/08/19 09:32:44;;;;;;;13.38;9.20;;;25.40;99.90;;;;;;5063889;28;20036;-52
2023/08/19 09:35:12;;;;;;;14.52;9.73;;;25.20;99.90;;;;;;5066894;28;20072;-52
2023/08/19 09:37:38;;;;;;;14.80;9.57;;;25.10;99.90;;;;;;5065647;28;20048;-52
2023/08/19 09:40:11;;;;;;;10.93;9.43;;;25.10;99.90;;;;;;5065216;28;20049;-53
2023/08/19 09:42:45;;;;;;;11.60;10.40;;;25.10;99.90;;;;;;5064189;28;20039;-53
2023/08/19 09:45:19;;;;;;;13.27;10.50;;;24.90;99.90;;;;;;5066328;28;20040;-52
2023/08/19 09:47:54;;;;;;;13.77;11.07;;;24.90;99.90;;;;;;5067517;28;20053;-50
2023/08/19 09:50:22;;;;;;;13.93;10.55;;;24.90;99.90;;;;;;5066318;28;20072;-50
2023/08/19 09:52:58;;;;;;;13.23;10.95;;;24.80;99.90;;;;;;5066516;28;20036;-52
2023/08/19 09:55:32;;;;;;;15.23;10.77;;;24.80;99.90;;;;;;5066547;28;20036;-52
2023/08/19 09:57:58;;;;;;;;;;;24.90;99.90;;;;;;5066891;28;20468;-53
2023/08/19 10:00:24;;;;;;;13.15;11.02;;;24.80;99.90;;;;;;5065443;28;19923;-53
2023/08/19 10:02:50;;;;;;;14.38;10.90;;;24.80;99.90;;;;;;5066460;28;20051;-51
2023/08/19 10:05:16;;;;;;;16.45;11.70;;;24.90;99.90;;;;;;5066905;28;20468;-53
2023/08/19 10:07:52;;;;;;;13.35;11.05;;;25.00;99.90;;;;;;5066682;28;20040;-53
2023/08/19 10:10:20;;;;;;;17.48;11.63;;;25.00;99.90;;;;;;5067898;28;20123;-51
2023/08/19 10:12:48;;;;;;;16.55;11.82;;;25.20;99.90;;;;;;5069400;28;20032;-52
2023/08/19 10:15:14;;;;;;;16.73;12.35;;;25.30;99.90;;;;;;5069877;28;20080;-53
2023/08/19 10:17:48;;;;;;;14.38;11.63;;;25.20;99.90;;;;;;5070417;28;20071;-51
2023/08/19 10:20:17;;;;;;;13.70;11.48;;;25.40;99.90;;;;;;5069283;28;20395;-52
2023/08/19 10:22:48;;;;;;;16.40;12.43;;;25.40;99.90;;;;;;5068531;28;20044;-50
2023/08/19 10:25:17;;;;;;;12.88;11.52;;;25.40;99.90;;;;;;5068814;28;20044;-53
2023/08/19 10:27:43;;;;;;;18.40;11.88;;;25.60;99.90;;;;;;5068168;28;20116;-54
2023/08/19 10:30:24;;;;;;;15.65;11.80;;;25.70;99.90;;;;;;5068392;28;20523;-54
2023/08/19 10:32:50;;;;;;;15.95;12.00;;;25.80;99.90;;;;;;5069207;28;20475;-53
2023/08/19 10:35:17;;;;;;;15.38;12.18;;;25.90;99.90;;;;;;5068355;28;20365;-53
2023/08/19 10:37:50;;;;;;;14.38;12.60;;;26.00;99.90;;;;;;5070443;28;20045;-51
2023/08/19 10:40:25;;;;;;;14.63;11.63;;;26.20;99.90;;;;;;5068488;28;21115;-53
2023/08/19 10:42:58;;;;;;;16.90;12.68;;;26.40;99.90;;;;;;5070087;28;20384;-52
2023/08/19 10:45:30;;;;;;;14.77;12.50;;;26.50;99.90;;;;;;5068161;28;20633;-52
2023/08/19 10:47:56;;;;;;;15.40;12.35;;;26.60;99.90;;;;;;5066907;28;20060;-50
2023/08/19 10:50:24;;;;;;;14.82;12.27;;;26.60;99.90;;;;;;5065676;28;20049;-50
2023/08/19 10:53:04;;;;;;;16.20;11.90;;;26.70;99.90;;;;;;5067825;28;20041;-49
2023/08/19 10:55:52;;;;;;;18.13;13.02;;;26.80;99.90;;;;;;5068277;28;20495;-52
2023/08/19 10:58:18;;;;;;;15.10;12.57;;;26.90;99.90;;;;;;5065315;28;20720;-53
2023/08/19 11:00:48;;;;;;;19.52;14.05;;;26.90;99.90;;;;;;5066931;28;22941;-52
2023/08/19 11:03:15;;;;;;;17.75;15.52;;;27.00;99.90;;;;;;5069997;28;20051;-53
2023/08/19 11:05:51;;;;;;;18.67;16.13;;;27.00;99.90;;;;;;5068986;28;20036;-51
2023/08/19 11:08:17;;;;;;;17.65;15.38;;;27.10;99.90;;;;;;5067951;28;20029;-55
2023/08/19 11:10:47;;;;;;;19.10;16.08;;;27.10;99.90;;;;;;5067611;28;20043;-54
2023/08/19 11:13:16;;;;;;;20.92;16.63;;;27.30;99.90;;;;;;5068777;28;20051;-52
2023/08/19 11:15:43;;;;;;;20.90;17.45;;;27.50;99.90;;;;;;5066424;28;20044;-53
2023/08/19 11:18:09;;;;;;;20.55;17.33;;;27.70;99.90;;;;;;5068026;28;20561;-53
2023/08/19 11:20:36;;;;;;;20.85;16.25;;;27.80;99.90;;;;;;5067168;28;20056;-53
2023/08/19 11:23:02;;;;;;;19.02;17.05;;;27.70;99.90;;;;;;5066135;28;20045;-51
2023/08/19 11:25:38;;;;;;;20.67;18.15;;;27.70;99.90;;;;;;5066638;28;20048;-52
2023/08/19 11:28:04;;;;;;;26.92;21.75;;;27.60;99.90;;;;;;5067641;28;20440;-54
2023/08/19 11:30:31;;;;;;;28.33;23.42;;;27.30;99.90;;;;;;5064763;28;20046;-50
2023/08/19 11:32:57;;;;;;;34.50;26.73;;;27.10;99.90;;;;;;5066601;28;20476;-48
2023/08/19 11:35:23;;;;;;;31.92;24.80;;;26.90;99.90;;;;;;5067960;28;20055;-50
2023/08/19 11:37:49;;;;;;;32.47;26.67;;;26.90;99.90;;;;;;5069416;28;20388;-50
2023/08/19 11:40:15;;;;;;;34.33;30.60;;;27.00;99.90;;;;;;5069037;28;20044;-49
2023/08/19 11:42:40;;;;;;;38.97;31.67;;;27.10;99.90;;;;;;5066337;28;20032;-50
2023/08/19 11:45:09;;;;;;;37.05;29.70;;;27.20;99.90;;;;;;5067238;28;20062;-50
2023/08/19 11:47:35;;;;;;;31.73;24.33;;;27.10;99.90;;;;;;5065812;28;20128;-52
2023/08/19 11:50:08;;;;;;;29.77;22.30;;;27.10;99.90;;;;;;5067394;28;20116;-52
2023/08/19 11:52:33;;;;;;;28.70;20.40;;;26.90;99.90;;;;;;5065974;28;20135;-50
2023/08/19 11:55:04;;;;;;;26.77;20.17;;;26.80;99.90;;;;;;5068078;28;20115;-51
2023/08/19 11:57:37;;;;;;;27.23;20.63;;;26.40;99.90;;;;;;5067178;28;20033;-52
2023/08/19 12:00:04;;;;;;;25.67;19.55;;;26.40;99.90;;;;;;5067367;28;20060;-51
2023/08/19 12:02:30;;;;;;;26.52;21.23;;;26.40;99.90;;;;;;5066393;28;20541;-51
2023/08/19 12:04:56;;;;;;;28.50;22.02;;;26.50;99.90;;;;;;5068540;28;20045;-53
2023/08/19 12:07:28;;;;;;;29.13;22.48;;;26.40;99.90;;;;;;5067957;28;20037;-52
2023/08/19 12:10:00;;;;;;;25.85;20.88;;;26.40;99.90;;;;;;5065312;28;20044;-50
2023/08/19 12:12:26;;;;;;;25.48;18.17;;;26.10;99.90;;;;;;5068777;28;20040;-51
2023/08/19 12:14:52;;;;;;;21.17;16.33;;;26.00;99.90;;;;;;5066005;28;20037;-53
2023/08/19 12:17:18;;;;;;;18.33;13.73;;;26.00;99.90;;;;;;5066420;28;20063;-53
2023/08/19 12:19:46;;;;;;;15.45;12.57;;;25.90;99.90;;;;;;5066614;28;20101;-49
2023/08/19 12:22:13;;;;;;;15.07;11.95;;;26.00;99.90;;;;;;5066662;28;20048;-54
2023/08/19 12:24:40;;;;;;;16.52;11.73;;;26.10;99.90;;;;;;5065195;28;20039;-48
2023/08/19 12:27:06;;;;;;;17.23;11.70;;;26.10;99.90;;;;;;5066794;28;20147;-49
2023/08/19 12:29:31;;;;;;;16.27;11.05;;;26.00;99.90;;;;;;5064673;28;20461;-52